Time;durP1;ratioP1;P1;durP2;ratioP2;P2;SDS_P1;SDS_P2;PMS_P1;PMS_P2;Temp;Humidity;BMP_temperature;BMP_pressure;BME280_temperature;BME280_humidity;BME280_pressure;Samples;Min_cycle;Max_cycle;Signal;HPM_P1;HPM_P2
2023/01/11 00:00:00;;;;;;;;;;;;;;;5.80;74.42;99125.44;5092854;28;19918;-42
2023/01/11 00:02:25;;;;;;;;;;;;;;;6.10;73.71;99140.41;5092417;28;19927;-42
2023/01/11 00:04:50;;;;;;;;;;;;;;;5.81;74.21;99142.13;5092434;28;20342;-42
2023/01/11 00:07:15;;;;;;;;;;;;;;;5.98;73.80;99148.03;5092046;28;19950;-42
2023/01/11 00:09:41;;;;;;;;;;;;;;;5.96;73.60;99155.28;5091993;28;19912;-42
2023/01/11 00:12:07;;;;;;;;;;;;;;;6.15;73.86;99151.22;5091798;28;19919;-42
2023/01/11 00:14:32;;;;;;;;;;;;;;;6.30;73.24;99148.50;5093191;28;19912;-42
2023/01/11 00:16:58;;;;;;;;;;;;;;;6.19;73.42;99155.94;5093204;28;19928;-43
2023/01/11 00:19:23;;;;;;;;;;;;;;;6.33;73.06;99154.22;5092976;28;19924;-42
2023/01/11 00:21:48;;;;;;;;;;;;;;;6.56;72.51;99156.66;5093155;28;20411;-43
2023/01/11 00:24:14;;;;;;;;;;;;;;;6.58;71.82;99165.19;5093386;28;19916;-42
2023/01/11 00:26:39;;;;;;;;;;;;;;;6.45;71.55;99170.38;5094036;28;20236;-42
2023/01/11 00:29:04;;;;;;;;;;;;;;;6.74;71.55;99173.84;5093350;28;19920;-42
2023/01/11 00:31:29;;;;;;;;;;;;;;;6.71;71.09;99179.56;5093737;28;19912;-42
2023/01/11 00:33:55;;;;;;;;;;;;;;;6.37;72.32;99173.16;5093820;28;19996;-42
2023/01/11 00:36:21;;;;;;;;;;;;;;;6.50;72.39;99178.56;5093532;28;20014;-42
2023/01/11 00:38:50;;;;;;;;;;;;;;;6.73;70.95;99173.03;5093305;28;19912;-42
2023/01/11 00:49:27;;;;;;;;;;;;;;;6.29;73.52;99186.53;5092920;28;19924;-42
2023/01/11 00:51:52;;;;;;;;;;;;;;;6.35;72.62;99181.28;5093345;28;19912;-42
2023/01/11 00:54:17;;;;;;;;;;;;;;;6.46;71.39;99182.59;5093469;28;19912;-42
2023/01/11 00:56:43;;;;;;;;;;;;;;;6.46;70.98;99177.31;5093484;28;20307;-42
2023/01/11 00:59:08;;;;;;;;;;;;;;;6.77;69.26;99189.34;5093334;28;19920;-43
2023/01/11 01:01:33;;;;;;;;;;;;;;;6.97;70.10;99192.97;5093037;28;19913;-43
2023/01/11 01:03:59;;;;;;;;;;;;;;;6.59;69.75;99188.00;5093220;28;19916;-43
2023/01/11 01:06:25;;;;;;;;;;;;;;;6.74;70.05;99190.56;5093498;28;19916;-42
2023/01/11 01:08:50;;;;;;;;;;;;;;;6.70;69.96;99183.19;5093158;28;19912;-42
2023/01/11 01:11:15;;;;;;;;;;;;;;;6.86;69.33;99180.28;5093091;28;19916;-42
2023/01/11 01:16:25;;;;;;;;;;;;;;;6.70;69.83;99183.19;5092625;28;19977;-43
2023/01/11 01:18:52;;;;;;;;;;;;;;;6.45;71.15;99191.53;5092373;28;19924;-42
2023/01/11 01:21:17;;;;;;;;;;;;;;;6.16;71.93;99187.19;5092498;28;19923;-42
2023/01/11 01:23:43;;;;;;;;;;;;;;;6.38;72.09;99188.03;5092255;28;20303;-42
2023/01/11 01:26:08;;;;;;;;;;;;;;;6.05;72.92;99189.34;5092629;28;19998;-43
2023/01/11 01:28:33;;;;;;;;;;;;;;;6.07;72.37;99189.97;5092739;28;20481;-43
2023/01/11 01:30:59;;;;;;;;;;;;;;;6.34;71.84;99186.75;5092547;28;20011;-41
2023/01/11 01:33:24;;;;;;;;;;;;;;;6.47;71.76;99189.50;5092939;28;19912;-42
2023/01/11 01:35:49;;;;;;;;;;;;;;;6.25;71.28;99181.59;5092769;28;19952;-42
2023/01/11 01:38:15;;;;;;;;;;;;;;;6.41;70.32;99190.28;5092818;28;20424;-42
2023/01/11 01:40:40;;;;;;;;;;;;;;;6.35;70.64;99185.75;5092314;28;19912;-42
2023/01/11 01:43:08;;;;;;;;;;;;;;;6.22;71.08;99184.59;5092587;28;19923;-42
2023/01/11 01:45:33;;;;;;;;;;;;;;;5.84;71.55;99187.44;5092642;28;19916;-42
2023/01/11 01:48:00;;;;;;;;;;;;;;;5.87;71.84;99179.16;5092142;28;19924;-42
2023/01/11 01:50:30;;;;;;;;;;;;;;;6.26;71.02;99190.34;5092484;28;19912;-42
2023/01/11 01:53:00;;;;;;;;;;;;;;;6.34;69.51;99195.50;5091878;28;19916;-42
2023/01/11 01:55:27;;;;;;;;;;;;;;;6.34;70.29;99194.69;5092259;28;20402;-42
2023/01/11 01:57:54;;;;;;;;;;;;;;;6.33;69.54;99199.16;5092616;28;19912;-42
2023/01/11 02:00:19;;;;;;;;;;;;;;;6.28;69.97;99190.97;5092428;28;20347;-42
2023/01/11 02:02:45;;;;;;;;;;;;;;;6.18;69.10;99187.81;5091957;28;19912;-43
2023/01/11 02:05:12;;;;;;;;;;;;;;;6.45;68.32;99194.16;5092352;28;19916;-42
2023/01/11 02:07:39;;;;;;;;;;;;;;;6.32;68.04;99191.41;5092005;28;19973;-42
2023/01/11 02:10:09;;;;;;;;;;;;;;;6.40;68.22;99191.31;5092194;28;19919;-42
2023/01/11 02:12:55;;;;;;;;;;;;;;;6.37;67.85;99186.38;5092001;28;20353;-42
2023/01/11 02:15:21;;;;;;;;;;;;;;;6.62;67.16;99190.25;5091623;28;19992;-42
2023/01/11 02:17:46;;;;;;;;;;;;;;;6.59;67.79;99198.56;5091945;28;20344;-42
2023/01/11 02:20:33;;;;;;;;;;;;;;;6.47;68.33;99200.09;5092011;28;19950;-42
2023/01/11 02:23:01;;;;;;;;;;;;;;;6.78;67.15;99199.75;5091918;28;19912;-42
2023/01/11 02:25:27;;;;;;;;;;;;;;;6.67;67.02;99204.75;5091337;28;19912;-42
2023/01/11 02:27:58;;;;;;;;;;;;;;;6.67;67.64;99196.81;5091778;28;19935;-43
2023/01/11 02:30:25;;;;;;;;;;;;;;;6.16;69.51;99210.97;5091642;28;20281;-43
2023/01/11 02:33:10;;;;;;;;;;;;;;;6.29;68.93;99207.66;5091731;28;19923;-43
2023/01/11 02:35:45;;;;;;;;;;;;;;;6.48;67.40;99214.94;5091734;28;19927;-43
2023/01/11 02:38:19;;;;;;;;;;;;;;;6.47;67.71;99221.22;5091676;28;19943;-43
2023/01/11 02:40:51;;;;;;;;;;;;;;;6.55;67.78;99223.75;5091436;28;20036;-41
2023/01/11 02:46:15;;;;;;;;;;;;;;;6.71;67.41;99214.72;5091621;28;19969;-41
2023/01/11 02:48:46;;;;;;;;;;;;;;;6.38;68.05;99222.38;5091660;28;19916;-42
2023/01/11 02:51:15;;;;;;;;;;;;;;;6.55;68.83;99213.19;5091362;28;20004;-42
2023/01/11 02:53:47;;;;;;;;;;;;;;;6.44;67.86;99216.34;5091565;28;19912;-42
2023/01/11 02:56:15;;;;;;;;;;;;;;;6.03;68.98;99207.19;5091188;28;19912;-42
2023/01/11 02:58:42;;;;;;;;;;;;;;;6.37;69.38;99212.81;5091166;28;19916;-42
2023/01/11 03:01:08;;;;;;;;;;;;;;;5.73;70.02;99211.72;5091174;28;20305;-42
2023/01/11 03:03:33;;;;;;;;;;;;;;;6.13;69.08;99213.97;5090511;28;19941;-42
2023/01/11 03:06:14;;;;;;;;;;;;;;;6.16;70.71;99206.50;5091064;28;19919;-42
2023/01/11 03:08:46;;;;;;;;;;;;;;;6.05;69.85;99199.06;5091051;28;19916;-42
2023/01/11 03:12:50;;;;;;;;;;;;;;;6.33;68.47;99204.44;5091391;28;19912;-42
2023/01/11 03:14:15;;;;;;;;;;;;;;;6.20;67.29;99210.41;5090746;28;20410;-42
2023/01/11 03:16:58;;;;;;;;;;;;;;;6.29;68.05;99215.59;5090924;28;20395;-42
2023/01/11 03:19:23;;;;;;;;;;;;;;;6.38;67.11;99209.97;5091028;28;19939;-43
2023/01/11 03:21:55;;;;;;;;;;;;;;;6.42;67.22;99210.44;5091214;28;20313;-42
2023/01/11 03:24:39;;;;;;;;;;;;;;;6.36;66.34;99208.53;5091145;28;19912;-42
2023/01/11 03:27:07;;;;;;;;;;;;;;;6.18;67.29;99204.50;5091072;28;19916;-42
2023/01/11 03:29:37;;;;;;;;;;;;;;;6.31;66.53;99211.75;5091089;28;20268;-42
2023/01/11 03:32:02;;;;;;;;;;;;;;;6.64;64.98;99219.16;5091137;28;19965;-41
2023/01/11 03:34:30;;;;;;;;;;;;;;;6.99;64.62;99219.22;5090928;28;19916;-41
2023/01/11 03:36:56;;;;;;;;;;;;;;;7.28;63.08;99214.72;5091151;28;19947;-42
2023/01/11 03:39:34;;;;;;;;;;;;;;;7.26;63.08;99220.22;5090501;28;19919;-42
2023/01/11 03:42:00;;;;;;;;;;;;;;;7.10;64.47;99225.78;5090737;28;19912;-36
2023/01/11 03:44:28;;;;;;;;;;;;;;;7.21;65.18;99223.41;5091070;28;19947;-36
2023/01/11 03:46:56;;;;;;;;;;;;;;;7.24;66.46;99230.19;5090866;28;19916;-36
2023/01/11 03:49:37;;;;;;;;;;;;;;;6.98;67.94;99228.16;5091018;28;19912;-36
2023/01/11 03:52:04;;;;;;;;;;;;;;;6.54;69.72;99234.53;5090667;28;19912;-36
2023/01/11 03:54:31;;;;;;;;;;;;;;;6.56;69.75;99243.88;5090773;28;19995;-36
2023/01/11 03:57:03;;;;;;;;;;;;;;;6.63;70.20;99247.41;5090724;28;19953;-36
2023/01/11 03:59:28;;;;;;;;;;;;;;;6.61;69.60;99257.38;5090668;28;19920;-36
2023/01/11 04:01:55;;;;;;;;;;;;;;;6.64;70.33;99270.22;5090473;28;19936;-37
2023/01/11 04:04:20;;;;;;;;;;;;;;;6.36;70.85;99266.66;5090391;28;20336;-38
2023/01/11 04:06:45;;;;;;;;;;;;;;;6.70;70.98;99273.94;5090518;28;19986;-37
2023/01/11 04:09:11;;;;;;;;;;;;;;;6.45;70.51;99276.13;5091004;28;19912;-36
2023/01/11 04:11:36;;;;;;;;;;;;;;;6.70;69.91;99281.88;5090551;28;19916;-36
2023/01/11 04:14:01;;;;;;;;;;;;;;;6.61;69.61;99281.16;5090799;28;19965;-36
2023/01/11 04:16:27;;;;;;;;;;;;;;;6.42;70.85;99287.09;5093786;28;19919;-37
2023/01/11 04:18:52;;;;;;;;;;;;;;;6.85;70.26;99289.72;5094225;28;20002;-36
2023/01/11 04:21:17;;;;;;;;;;;;;;;6.81;69.59;99297.19;5094405;28;20389;-36
2023/01/11 04:23:42;;;;;;;;;;;;;;;6.65;70.21;99287.72;5094013;28;20106;-36
2023/01/11 04:26:08;;;;;;;;;;;;;;;6.48;69.94;99288.16;5094019;28;20224;-35
2023/01/11 04:28:33;;;;;;;;;;;;;;;6.75;69.84;99287.38;5093851;28;19981;-36
2023/01/11 04:30:59;;;;;;;;;;;;;;;6.67;72.21;99289.34;5094203;28;20021;-36
2023/01/11 04:33:24;;;;;;;;;;;;;;;6.45;70.38;99287.53;5093971;28;19912;-36
2023/01/11 04:35:49;;;;;;;;;;;;;;;6.32;70.69;99290.03;5093832;28;20578;-37
2023/01/11 04:38:14;;;;;;;;;;;;;;;6.33;70.71;99293.47;5093872;28;19923;-36
2023/01/11 04:40:40;;;;;;;;;;;;;;;6.65;69.27;99300.94;5093722;28;19912;-36
2023/01/11 04:43:05;;;;;;;;;;;;;;;6.52;70.86;99306.09;5093987;28;19912;-36
2023/01/11 04:45:30;;;;;;;;;;;;;;;6.27;70.72;99305.63;5093449;28;20004;-36
2023/01/11 04:47:56;;;;;;;;;;;;;;;6.25;70.99;99316.38;5092751;28;19920;-36
2023/01/11 04:50:22;;;;;;;;;;;;;;;6.03;71.95;99318.13;5093321;28;19916;-37
2023/01/11 04:52:47;;;;;;;;;;;;;;;6.12;71.92;99328.59;5087842;28;19947;-36
2023/01/11 04:55:13;;;;;;;;;;;;;;;6.40;71.51;99329.56;5092831;28;20413;-36
2023/01/11 04:57:38;;;;;;;;;;;;;;;6.44;71.11;99327.34;5093626;28;19923;-37
2023/01/11 05:00:09;;;;;;;;;;;;;;;6.25;72.28;99326.13;5093264;28;19985;-36
2023/01/11 05:02:34;;;;;;;;;;;;;;;6.52;71.51;99337.81;5093130;28;19912;-36
2023/01/11 05:05:00;;;;;;;;;;;;;;;6.40;70.85;99337.47;5093037;28;19969;-34
2023/01/11 05:07:25;;;;;;;;;;;;;;;6.58;71.03;99329.13;5092633;28;19922;-37
2023/01/11 05:09:50;;;;;;;;;;;;;;;6.57;70.04;99322.22;5091717;28;20356;-37
2023/01/11 05:12:15;;;;;;;;;;;;;;;6.19;71.16;99329.53;5091842;28;19916;-36
2023/01/11 05:14:41;;;;;;;;;;;;;;;7.95;79.98;99335.06;5082991;28;19916;-37
2023/01/11 05:17:06;;;;;;;;;;;;;;;8.57;74.09;99334.13;5088106;28;19920;-36
2023/01/11 05:19:31;;;;;;;;;;;;;;;9.33;72.07;99332.16;5091760;28;19995;-36
2023/01/11 05:21:56;;;;;;;;;;;;;;;10.01;70.36;99334.47;5091527;28;19935;-43
2023/01/11 05:24:22;;;;;;;;;;;;;;;10.62;67.41;99340.38;5092865;28;19923;-43
2023/01/11 05:26:49;;;;;;;;;;;;;;;10.73;61.77;99334.38;5092120;28;19974;-43
2023/01/11 05:29:19;;;;;;;;;;;;;;;10.82;56.51;99337.59;5092185;28;20027;-42
2023/01/11 05:31:45;;;;;;;;;;;;;;;9.65;57.89;99343.75;5092427;28;19920;-42
2023/01/11 05:34:14;;;;;;;;;;;;;;;9.37;59.08;99347.47;5092416;28;19912;-43
2023/01/11 05:36:39;;;;;;;;;;;;;;;8.98;60.06;99346.41;5092701;28;19919;-42
2023/01/11 05:39:05;;;;;;;;;;;;;;;8.18;61.81;99346.19;5092661;28;20299;-42
2023/01/11 05:41:30;;;;;;;;;;;;;;;7.94;63.08;99336.06;5092577;28;20233;-42
2023/01/11 05:46:40;;;;;;;;;;;;;;;7.97;62.95;99348.94;5078011;28;19932;-42
2023/01/11 05:49:06;;;;;;;;;;;;;;;7.75;63.50;99353.50;5080976;28;19961;-42
2023/01/11 05:51:32;;;;;;;;;;;;;;;7.67;63.96;99358.94;5092496;28;19940;-42
2023/01/11 05:53:58;;;;;;;;;;;;;;;7.76;67.19;99363.09;5092237;28;19919;-41
2023/01/11 05:56:23;;;;;;;;;;;;;;;7.78;63.28;99369.81;5091541;28;19918;-42
2023/01/11 05:58:49;;;;;;;;;;;;;;;8.00;62.82;99369.75;5091865;28;19951;-42
2023/01/11 06:01:15;;;;;;;;;;;;;;;8.06;62.11;99368.97;5091639;28;20018;-43
2023/01/11 06:03:41;;;;;;;;;;;;;;;7.98;61.67;99369.13;5092648;28;20433;-42
2023/01/11 06:06:06;;;;;;;;;;;;;;;7.89;62.19;99368.47;5093043;28;20363;-43
2023/01/11 06:08:32;;;;;;;;;;;;;;;7.75;62.39;99377.31;5091713;28;19963;-42
2023/01/11 06:10:57;;;;;;;;;;;;;;;7.85;62.77;99377.00;5091054;28;19912;-42
2023/01/11 06:13:26;;;;;;;;;;;;;;;7.70;62.76;99390.34;5090459;28;20386;-41
2023/01/11 06:15:52;;;;;;;;;;;;;;;7.59;63.48;99387.22;5090855;28;19912;-41
2023/01/11 06:18:18;;;;;;;;;;;;;;;7.88;62.53;99384.56;5080739;28;19932;-41
2023/01/11 06:20:47;;;;;;;;;;;;;;;7.42;63.84;99396.44;5071247;28;20008;-44
2023/01/11 06:23:12;;;;;;;;;;;;;;;6.94;65.02;99399.69;5071103;28;19999;-42
2023/01/11 06:25:37;;;;;;;;;;;;;;;6.52;66.92;99403.91;5071382;28;19963;-42
2023/01/11 06:28:03;;;;;;;;;;;;;;;6.98;66.06;99398.28;5071159;28;19916;-42
2023/01/11 06:30:29;;;;;;;;;;;;;;;7.21;64.97;99402.59;5074728;28;19912;-42
2023/01/11 06:32:54;;;;;;;;;;;;;;;7.28;65.34;99407.94;5091614;28;19912;-41
2023/01/11 06:35:20;;;;;;;;;;;;;;;6.77;67.33;99407.03;5091740;28;19912;-42
2023/01/11 06:37:45;;;;;;;;;;;;;;;6.89;66.82;99404.72;5091546;28;19919;-41
2023/01/11 06:40:11;;;;;;;;;;;;;;;7.19;65.49;99404.59;5091255;28;20011;-43
2023/01/11 06:42:36;;;;;;;;;;;;;;;7.02;66.12;99398.75;5091416;28;20015;-43
2023/01/11 06:45:02;;;;;;;;;;;;;;;7.00;66.39;99412.16;5091324;28;20251;-41
2023/01/11 06:47:27;;;;;;;;;;;;;;;7.00;65.70;99412.16;5091222;28;19919;-42
2023/01/11 06:49:52;;;;;;;;;;;;;;;7.55;64.55;99414.28;5082875;28;20349;-43
2023/01/11 06:52:18;;;;;;;;;;;;;;;6.62;67.28;99412.34;5089985;28;19924;-42
2023/01/11 06:54:43;;;;;;;;;;;;;;;6.70;66.69;99421.19;5091250;28;19912;-42
2023/01/11 06:57:08;;;;;;;;;;;;;;;6.76;66.93;99431.84;5091037;28;19992;-42
2023/01/11 06:59:33;;;;;;;;;;;;;;;7.21;65.90;99439.63;5090982;28;19977;-42
2023/01/11 07:01:59;;;;;;;;;;;;;;;7.14;66.00;99436.09;5090893;28;19950;-42
2023/01/11 07:04:24;;;;;;;;;;;;;;;7.11;66.63;99442.59;5089963;28;19939;-42
2023/01/11 07:06:53;;;;;;;;;;;;;;;7.00;66.13;99445.72;5090462;28;20003;-42
2023/01/11 07:09:18;;;;;;;;;;;;;;;6.59;67.79;99456.88;5090331;28;19912;-43
2023/01/11 07:11:43;;;;;;;;;;;;;;;7.24;66.87;99453.31;5090588;28;20303;-42
2023/01/11 07:14:10;;;;;;;;;;;;;;;7.08;66.72;99463.31;5090372;28;20268;-42
2023/01/11 07:16:36;;;;;;;;;;;;;;;6.76;68.03;99457.47;5089401;28;20302;-42
2023/01/11 07:19:01;;;;;;;;;;;;;;;6.55;68.27;99464.34;5088570;28;20569;-42
2023/01/11 07:21:26;;;;;;;;;;;;;;;6.76;67.63;99458.31;5088834;28;19923;-42
2023/01/11 07:23:52;;;;;;;;;;;;;;;6.99;67.12;99460.78;5089131;28;19916;-42
2023/01/11 07:26:17;;;;;;;;;;;;;;;6.97;66.20;99468.09;5088644;28;19916;-42
2023/01/11 07:28:42;;;;;;;;;;;;;;;7.27;66.03;99465.34;5088709;28;19912;-42
2023/01/11 07:31:08;;;;;;;;;;;;;;;6.92;67.03;99472.31;5089211;28;20010;-42
2023/01/11 07:33:33;;;;;;;;;;;;;;;7.26;66.52;99473.50;5090736;28;20006;-42
2023/01/11 07:35:59;;;;;;;;;;;;;;;7.73;64.99;99485.31;5090301;28;19912;-42
2023/01/11 07:38:27;;;;;;;;;;;;;;;7.98;63.78;99491.03;5090451;28;19912;-41
2023/01/11 07:40:52;;;;;;;;;;;;;;;7.99;64.05;99498.75;5090503;28;19930;-42
2023/01/11 07:43:20;;;;;;;;;;;;;;;8.37;62.73;99494.94;5090119;28;20018;-42
2023/01/11 07:45:49;;;;;;;;;;;;;;;8.41;62.61;99505.00;5090130;28;19916;-42
2023/01/11 07:48:19;;;;;;;;;;;;;;;8.99;60.49;99511.81;5090211;28;19955;-41
2023/01/11 07:50:45;;;;;;;;;;;;;;;8.98;60.51;99510.16;5092669;28;19912;-42
2023/01/11 07:53:10;;;;;;;;;;;;;;;8.64;60.72;99509.19;5094197;28;19912;-41
2023/01/11 07:55:36;;;;;;;;;;;;;;;8.72;60.81;99511.69;5094537;28;19912;-42
2023/01/11 07:58:02;;;;;;;;;;;;;;;9.06;59.97;99512.63;5094258;28;19942;-42
2023/01/11 08:00:27;;;;;;;;;;;;;;;9.57;58.65;99524.63;5094111;28;20004;-42
2023/01/11 08:02:52;;;;;;;;;;;;;;;9.32;59.49;99525.19;5094259;28;20390;-42
2023/01/11 08:05:18;;;;;;;;;;;;;;;9.27;59.68;99519.66;5094361;28;19912;-42
2023/01/11 08:07:44;;;;;;;;;;;;;;;9.60;58.27;99521.56;5094250;28;19965;-42
2023/01/11 08:10:10;;;;;;;;;;;;;;;9.51;58.16;99525.44;5093820;28;19911;-43
2023/01/11 08:15:23;;;;;;;;;;;;;;;9.01;59.38;99531.00;5093798;28;19923;-42
2023/01/11 08:17:49;;;;;;;;;;;;;;;8.70;60.67;99524.34;5093796;28;19916;-42
2023/01/11 08:20:14;;;;;;;;;;;;;;;8.79;60.29;99543.56;5093653;28;20007;-43
2023/01/11 08:22:39;;;;;;;;;;;;;;;9.58;59.78;99535.03;5093804;28;20131;-42
2023/01/11 08:25:05;;;;;;;;;;;;;;;10.14;55.39;99533.84;5093734;28;20022;-40
2023/01/11 08:27:30;;;;;;;;;;;;;;;10.36;54.86;99534.47;5093591;28;19916;-43
2023/01/11 08:29:56;;;;;;;;;;;;;;;10.12;55.82;99538.53;5093444;28;19916;-42
2023/01/11 08:32:21;;;;;;;;;;;;;;;10.50;54.79;99545.91;5093312;28;19912;-42
2023/01/11 08:34:46;;;;;;;;;;;;;;;10.22;53.58;99548.75;5093479;28;19938;-42
2023/01/11 08:37:12;;;;;;;;;;;;;;;10.04;54.69;99557.38;5093155;28;20009;-43
2023/01/11 08:39:39;;;;;;;;;;;;;;;10.18;55.06;99548.38;5093335;28;20367;-42
2023/01/11 08:42:04;;;;;;;;;;;;;;;10.69;53.53;99560.19;5093022;28;19912;-41
2023/01/11 08:44:29;;;;;;;;;;;;;;;10.35;52.94;99564.75;5093027;28;20008;-43
2023/01/11 08:46:55;;;;;;;;;;;;;;;10.34;53.38;99559.66;5093030;28;19920;-42
2023/01/11 08:49:20;;;;;;;;;;;;;;;10.41;54.00;99578.25;5093288;28;19923;-42
2023/01/11 08:51:45;;;;;;;;;;;;;;;10.27;53.00;99577.41;5093380;28;19912;-42
2023/01/11 08:54:12;;;;;;;;;;;;;;;10.08;52.83;99581.72;5093319;28;20014;-41
2023/01/11 08:56:37;;;;;;;;;;;;;;;10.57;52.41;99578.63;5093106;28;19923;-41
2023/01/11 08:59:03;;;;;;;;;;;;;;;10.44;52.73;99581.31;5093151;28;19912;-43
2023/01/11 09:01:29;;;;;;;;;;;;;;;11.04;52.32;99577.69;5092988;28;19912;-42
2023/01/11 09:03:55;;;;;;;;;;;;;;;10.99;52.04;99580.19;5092828;28;20368;-42
2023/01/11 09:06:21;;;;;;;;;;;;;;;11.15;51.12;99582.38;5093072;28;20031;-42
2023/01/11 09:08:46;;;;;;;;;;;;;;;10.70;52.23;99576.97;5093032;28;19920;-43
2023/01/11 09:13:56;;;;;;;;;;;;;;;10.75;53.11;99579.84;5093361;28;19935;-42
2023/01/11 09:16:21;;;;;;;;;;;;;;;10.83;52.64;99576.13;5092963;28;20376;-42
2023/01/11 09:18:47;;;;;;;;;;;;;;;10.63;53.41;99586.81;5092591;28;19935;-43
2023/01/11 09:21:12;;;;;;;;;;;;;;;10.29;54.80;99570.84;5092828;28;19937;-41
2023/01/11 09:23:38;;;;;;;;;;;;;;;10.28;55.70;99569.25;5092835;28;19946;-42
2023/01/11 09:26:03;;;;;;;;;;;;;;;10.47;56.06;99577.41;5092753;28;19923;-42
2023/01/11 09:28:28;;;;;;;;;;;;;;;11.05;54.17;99568.69;5092317;28;19920;-42
2023/01/11 09:30:54;;;;;;;;;;;;;;;10.78;53.71;99567.97;5092537;28;19912;-43
2023/01/11 09:33:19;;;;;;;;;;;;;;;10.87;54.22;99561.38;5092452;28;19920;-42
2023/01/11 09:35:45;;;;;;;;;;;;;;;10.98;53.60;99567.91;5092389;28;19916;-42
2023/01/11 09:38:11;;;;;;;;;;;;;;;10.86;53.16;99565.88;5092070;28;19974;-42
2023/01/11 09:40:40;;;;;;;;;;;;;;;11.24;51.89;99564.31;5092558;28;19912;-45
2023/01/11 09:43:08;;;;;;;;;;;;;;;11.24;52.12;99562.47;5091431;28;20018;-42
2023/01/11 09:45:34;;;;;;;;;;;;;;;11.20;51.64;99563.09;5092581;28;19911;-41
2023/01/11 09:48:14;;;;;;;;;;;;;;;11.55;50.94;99564.34;5092060;28;19916;-42
2023/01/11 09:50:42;;;;;;;;;;;;;;;11.62;50.92;99572.31;5092242;28;19912;-42
2023/01/11 09:53:18;;;;;;;;;;;;;;;11.54;49.39;99584.03;5092046;28;19964;-42
2023/01/11 09:55:45;;;;;;;;;;;;;;;11.53;50.61;99581.56;5092127;28;19915;-41
2023/01/11 09:58:28;;;;;;;;;;;;;;;11.76;49.31;99577.56;5092273;28;20003;-42
2023/01/11 10:00:53;;;;;;;;;;;;;;;11.33;49.34;99587.03;5091995;28;20003;-43
2023/01/11 10:03:24;;;;;;;;;;;;;;;11.41;49.74;99585.97;5092304;28;20007;-42
2023/01/11 10:06:00;;;;;;;;;;;;;;;11.17;49.71;99582.16;5091855;28;19935;-42
2023/01/11 10:08:52;;;;;;;;;;;;;;;10.59;52.26;99594.41;5092008;28;20413;-42
2023/01/11 10:11:26;;;;;;;;;;;;;;;10.51;52.75;99586.66;5091922;28;19916;-42
2023/01/11 10:14:12;;;;;;;;;;;;;;;10.75;52.46;99580.63;5091069;28;19919;-41
2023/01/11 10:16:46;;;;;;;;;;;;;;;11.41;50.53;99578.78;5091594;28;19989;-42
2023/01/11 10:19:19;;;;;;;;;;;;;;;11.78;50.73;99578.16;5091554;28;19931;-42
2023/01/11 10:21:50;;;;;;;;;;;;;;;11.28;50.55;99586.81;5091463;28;19912;-42
2023/01/11 10:24:20;;;;;;;;;;;;;;;11.15;50.21;99577.84;5091837;28;19916;-42
2023/01/11 10:26:47;;;;;;;;;;;;;;;11.58;50.67;99587.09;5091626;28;19939;-44
2023/01/11 10:42:24;;;;;;;;;;;;;;;11.99;50.37;99585.81;5091645;28;20398;-43
2023/01/11 10:45:11;;;;;;;;;;;;;;;11.93;50.25;99578.69;5091399;28;19947;-42
2023/01/11 10:47:40;;;;;;;;;;;;;;;12.11;49.55;99573.44;5091352;28;20007;-42
2023/01/11 10:50:25;;;;;;;;;;;;;;;12.13;49.57;99575.88;5091336;28;19958;-42
2023/01/11 10:52:55;;;;;;;;;;;;;;;12.26;49.29;99572.28;5090857;28;19920;-43
2023/01/11 10:55:35;;;;;;;;;;;;;;;12.05;49.97;99573.47;5091300;28;19913;-41
2023/01/11 10:58:00;;;;;;;;;;;;;;;12.39;47.92;99566.81;5091127;28;19916;-43
2023/01/11 11:00:35;;;;;;;;;;;;;;;12.42;47.71;99565.56;5091006;28;19963;-41
2023/01/11 11:03:27;;;;;;;;;;;;;;;12.13;48.22;99566.03;5091398;28;19935;-43
2023/01/11 11:05:52;;;;;;;;;;;;;;;11.53;49.74;99574.38;5091150;28;19912;-43
2023/01/11 11:08:26;;;;;;;;;;;;;;;11.22;51.13;99574.38;5090830;28;19916;-42
2023/01/11 11:10:57;;;;;;;;;;;;;;;11.43;50.17;99566.06;5091289;28;19962;-40
2023/01/11 11:13:25;;;;;;;;;;;;;;;11.57;51.48;99566.78;5090950;28;19912;-42
2023/01/11 11:16:01;;;;;;;;;;;;;;;11.66;50.54;99556.69;5091412;28;19912;-42
2023/01/11 11:18:26;;;;;;;;;;;;;;;11.65;51.01;99558.56;5091044;28;19950;-42
2023/01/11 11:20:51;;;;;;;;;;;;;;;10.79;52.76;99564.25;5091260;28;20379;-41
2023/01/11 11:23:20;;;;;;;;;;;;;;;11.54;51.00;99570.72;5090883;28;20443;-42
2023/01/11 11:25:57;;;;;;;;;;;;;;;11.12;51.47;99562.31;5093421;28;19999;-41
2023/01/11 11:28:27;;;;;;;;;;;;;;;10.91;51.98;99552.75;5095408;28;19920;-42
2023/01/11 11:30:54;;;;;;;;;;;;;;;11.35;52.11;99559.13;5095441;28;19947;-43
2023/01/11 11:33:36;;;;;;;;;;;;;;;11.13;51.72;99563.13;5094958;28;19970;-43
2023/01/11 11:36:11;;;;;;;;;;;;;;;10.70;52.47;99566.31;5094692;28;19943;-42
2023/01/11 11:38:38;;;;;;;;;;;;;;;10.45;54.27;99561.69;5094879;28;19920;-42
2023/01/11 11:41:03;;;;;;;;;;;;;;;10.92;52.94;99566.88;5095042;28;19954;-43
2023/01/11 11:43:29;;;;;;;;;;;;;;;10.99;52.23;99573.00;5094821;28;19956;-42
2023/01/11 11:45:56;;;;;;;;;;;;;;;11.06;52.78;99559.66;5095032;28;19954;-42
2023/01/11 11:48:22;;;;;;;;;;;;;;;10.86;53.61;99567.72;5094421;28;19916;-42
2023/01/11 11:50:48;;;;;;;;;;;;;;;11.61;51.41;99568.00;5094982;28;19916;-42
2023/01/11 11:53:24;;;;;;;;;;;;;;;11.37;51.47;99571.44;5094442;28;19919;-43
2023/01/11 11:55:49;;;;;;;;;;;;;;;11.70;50.92;99569.38;5094694;28;20303;-42
2023/01/11 11:58:17;;;;;;;;;;;;;;;11.72;51.62;99567.31;5094179;28;20375;-42
2023/01/11 12:00:49;;;;;;;;;;;;;;;11.86;49.70;99562.72;5094410;28;20341;-42
2023/01/11 12:03:29;;;;;;;;;;;;;;;11.50;50.62;99566.03;5094408;28;20008;-42
2023/01/11 12:06:06;;;;;;;;;;;;;;;11.31;51.13;99568.56;5094358;28;19919;-43
2023/01/11 12:08:32;;;;;;;;;;;;;;;12.00;49.86;99563.47;5094299;28;20008;-41
2023/01/11 12:11:00;;;;;;;;;;;;;;;12.04;49.54;99570.00;5094030;28;20405;-42
2023/01/11 12:13:27;;;;;;;;;;;;;;;11.27;51.58;99567.38;5094510;28;19998;-44
2023/01/11 12:15:56;;;;;;;;;;;;;;;11.61;51.15;99568.00;5094252;28;19916;-43
2023/01/11 12:18:27;;;;;;;;;;;;;;;12.08;48.93;99562.38;5093709;28;20024;-42
2023/01/11 12:20:52;;;;;;;;;;;;;;;11.54;50.83;99567.22;5092770;28;19916;-43
2023/01/11 12:23:22;;;;;;;;;;;;;;;11.08;52.61;99557.59;5092823;28;20410;-42
2023/01/11 12:25:53;;;;;;;;;;;;;;;11.47;51.89;99567.25;5092862;28;19946;-42
2023/01/11 12:28:38;;;;;;;;;;;;;;;11.76;50.51;99558.88;5092655;28;20314;-42
2023/01/11 12:31:11;;;;;;;;;;;;;;;11.53;51.65;99562.91;5092793;28;19980;-42
2023/01/11 12:33:46;;;;;;;;;;;;;;;11.67;51.30;99559.16;5092616;28;19912;-43
2023/01/11 12:36:20;;;;;;;;;;;;;;;11.86;50.50;99564.56;5092151;28;19987;-43
2023/01/11 12:38:57;;;;;;;;;;;;;;;11.45;51.43;99566.66;5092691;28;20088;-40
2023/01/11 12:41:49;;;;;;;;;;;;;;;11.70;51.50;99564.03;5092548;28;19956;-43
2023/01/11 12:44:14;;;;;;;;;;;;;;;11.22;52.84;99574.38;5083764;28;19995;-44
2023/01/11 12:46:45;;;;;;;;;;;;;;;11.87;51.05;99567.00;5092645;28;20051;-42
2023/01/11 12:49:30;;;;;;;;;;;;;;;11.80;50.99;99571.56;5092455;28;19919;-41
2023/01/11 12:52:20;;;;;;;;;;;;;;;11.98;51.08;99578.06;5092172;28;19916;-42
2023/01/11 12:54:50;;;;;;;;;;;;;;;12.06;50.56;99583.94;5092019;28;19961;-41
2023/01/11 12:57:27;;;;;;;;;;;;;;;12.42;49.30;99586.94;5091950;28;19951;-43
2023/01/11 12:59:52;;;;;;;;;;;;;;;12.52;49.86;99574.69;5092371;28;19912;-43
2023/01/11 13:02:18;;;;;;;;;;;;;;;12.65;49.35;99583.63;5091975;28;19912;-42
2023/01/11 13:04:43;;;;;;;;;;;;;;;12.65;49.62;99579.09;5091758;28;19976;-44
2023/01/11 13:07:13;;;;;;;;;;;;;;;13.19;48.29;99590.00;5091906;28;20406;-43
2023/01/11 13:09:57;;;;;;;;;;;;;;;12.76;48.85;99592.78;5091860;28;19918;-43
2023/01/11 13:12:22;;;;;;;;;;;;;;;13.04;47.93;99592.22;5091963;28;19923;-44
2023/01/11 13:15:06;;;;;;;;;;;;;;;13.17;47.66;99596.63;5091886;28;19912;-42
2023/01/11 13:17:32;;;;;;;;;;;;;;;12.82;48.47;99600.69;5091931;28;19916;-42
2023/01/11 13:20:15;;;;;;;;;;;;;;;12.73;48.46;99603.88;5026409;28;1855765;-43
2023/01/11 13:22:44;;;;;;;;;;;;;;;12.74;48.20;99603.66;5092571;28;19920;-42
2023/01/11 13:25:35;;;;;;;;;;;;;;;13.28;47.18;99607.38;5092782;28;19971;-42
2023/01/11 13:28:09;;;;;;;;;;;;;;;13.53;46.77;99608.31;5091260;28;19916;-44
2023/01/11 13:30:35;;;;;;;;;;;;;;;13.52;46.26;99604.84;5092155;28;19912;-43
2023/01/11 13:33:03;;;;;;;;;;;;;;;13.64;46.17;99611.03;5092410;28;19970;-42